sensor_id;sensor_type;location;lat;lon;timestamp;P1;durP1;ratioP1;P2;durP2;ratioP2
33160;SDS011;19522;45.656;11.302;2023-07-29T00:01:33;7.43;;;3.83;;
33160;SDS011;19522;45.656;11.302;2023-07-29T00:03:59;4.68;;;3.40;;
33160;SDS011;19522;45.656;11.302;2023-07-29T00:06:25;6.50;;;3.38;;
33160;SDS011;19522;45.656;11.302;2023-07-29T00:08:51;8.20;;;3.83;;
33160;SDS011;19522;45.656;11.302;2023-07-29T00:11:16;6.38;;;3.28;;
33160;SDS011;19522;45.656;11.302;2023-07-29T00:13:44;6.38;;;3.33;;
33160;SDS011;19522;45.656;11.302;2023-07-29T00:16:12;7.38;;;3.05;;
33160;SDS011;19522;45.656;11.302;2023-07-29T00:18:37;6.18;;;3.20;;
33160;SDS011;19522;45.656;11.302;2023-07-29T00:21:03;5.55;;;3.47;;
33160;SDS011;19522;45.656;11.302;2023-07-29T00:23:29;6.53;;;3.30;;
33160;SDS011;19522;45.656;11.302;2023-07-29T00:25:54;8.02;;;3.60;;
33160;SDS011;19522;45.656;11.302;2023-07-29T00:28:20;3.95;;;3.00;;
33160;SDS011;19522;45.656;11.302;2023-07-29T00:30:45;4.45;;;3.08;;
33160;SDS011;19522;45.656;11.302;2023-07-29T00:33:11;4.40;;;3.28;;
33160;SDS011;19522;45.656;11.302;2023-07-29T00:35:36;8.93;;;3.47;;
33160;SDS011;19522;45.656;11.302;2023-07-29T00:38:10;4.93;;;3.30;;
33160;SDS011;19522;45.656;11.302;2023-07-29T00:40:35;5.75;;;2.78;;
33160;SDS011;19522;45.656;11.302;2023-07-29T00:43:02;5.68;;;3.13;;
33160;SDS011;19522;45.656;11.302;2023-07-29T00:45:27;5.30;;;3.30;;
33160;SDS011;19522;45.656;11.302;2023-07-29T00:47:54;5.30;;;3.00;;
33160;SDS011;19522;45.656;11.302;2023-07-29T00:50:20;6.38;;;3.88;;
33160;SDS011;19522;45.656;11.302;2023-07-29T00:52:45;5.72;;;3.60;;
33160;SDS011;19522;45.656;11.302;2023-07-29T00:55:14;6.85;;;4.10;;
33160;SDS011;19522;45.656;11.302;2023-07-29T00:57:39;6.85;;;4.47;;
33160;SDS011;19522;45.656;11.302;2023-07-29T01:00:07;9.18;;;4.43;;
33160;SDS011;19522;45.656;11.302;2023-07-29T01:02:34;7.38;;;3.65;;
33160;SDS011;19522;45.656;11.302;2023-07-29T01:05:00;5.60;;;3.60;;
33160;SDS011;19522;45.656;11.302;2023-07-29T01:10:02;7.40;;;3.58;;
33160;SDS011;19522;45.656;11.302;2023-07-29T01:15:16;8.73;;;3.60;;
33160;SDS011;19522;45.656;11.302;2023-07-29T01:17:43;6.38;;;4.10;;
33160;SDS011;19522;45.656;11.302;2023-07-29T01:20:14;5.18;;;3.30;;
33160;SDS011;19522;45.656;11.302;2023-07-29T01:22:40;5.15;;;3.47;;
33160;SDS011;19522;45.656;11.302;2023-07-29T01:25:07;5.32;;;3.70;;
33160;SDS011;19522;45.656;11.302;2023-07-29T01:27:33;6.50;;;3.67;;
33160;SDS011;19522;45.656;11.302;2023-07-29T01:30:01;5.88;;;3.63;;
33160;SDS011;19522;45.656;11.302;2023-07-29T01:37:51;6.43;;;3.45;;
33160;SDS011;19522;45.656;11.302;2023-07-29T01:40:20;6.22;;;3.28;;
33160;SDS011;19522;45.656;11.302;2023-07-29T01:42:48;5.25;;;3.25;;
33160;SDS011;19522;45.656;11.302;2023-07-29T01:45:14;6.90;;;3.75;;
33160;SDS011;19522;45.656;11.302;2023-07-29T01:47:40;4.20;;;3.35;;
33160;SDS011;19522;45.656;11.302;2023-07-29T01:50:06;5.57;;;3.53;;
33160;SDS011;19522;45.656;11.302;2023-07-29T01:52:33;7.13;;;3.30;;
33160;SDS011;19522;45.656;11.302;2023-07-29T01:54:59;7.43;;;3.85;;
33160;SDS011;19522;45.656;11.302;2023-07-29T01:57:24;6.53;;;3.58;;
33160;SDS011;19522;45.656;11.302;2023-07-29T01:59:50;5.35;;;3.80;;
33160;SDS011;19522;45.656;11.302;2023-07-29T02:02:15;5.40;;;3.90;;
33160;SDS011;19522;45.656;11.302;2023-07-29T02:04:41;4.95;;;3.30;;
33160;SDS011;19522;45.656;11.302;2023-07-29T02:07:07;5.60;;;3.65;;
33160;SDS011;19522;45.656;11.302;2023-07-29T02:09:32;5.47;;;3.28;;
33160;SDS011;19522;45.656;11.302;2023-07-29T02:11:58;6.28;;;3.70;;
33160;SDS011;19522;45.656;11.302;2023-07-29T02:14:23;6.10;;;3.20;;
33160;SDS011;19522;45.656;11.302;2023-07-29T02:16:49;4.43;;;3.30;;
33160;SDS011;19522;45.656;11.302;2023-07-29T02:19:15;7.72;;;3.25;;
33160;SDS011;19522;45.656;11.302;2023-07-29T02:21:40;6.85;;;3.90;;
33160;SDS011;19522;45.656;11.302;2023-07-29T02:24:06;5.43;;;3.83;;
33160;SDS011;19522;45.656;11.302;2023-07-29T02:26:31;6.72;;;3.67;;
33160;SDS011;19522;45.656;11.302;2023-07-29T02:28:57;4.68;;;3.05;;
33160;SDS011;19522;45.656;11.302;2023-07-29T02:31:23;5.13;;;2.90;;
33160;SDS011;19522;45.656;11.302;2023-07-29T02:33:50;5.10;;;2.80;;
33160;SDS011;19522;45.656;11.302;2023-07-29T02:36:16;6.03;;;3.20;;
33160;SDS011;19522;45.656;11.302;2023-07-29T02:38:42;5.10;;;3.60;;
33160;SDS011;19522;45.656;11.302;2023-07-29T02:41:08;7.05;;;3.80;;
33160;SDS011;19522;45.656;11.302;2023-07-29T02:43:35;8.00;;;3.95;;
33160;SDS011;19522;45.656;11.302;2023-07-29T02:46:01;6.32;;;3.90;;
33160;SDS011;19522;45.656;11.302;2023-07-29T02:48:27;5.45;;;3.53;;
33160;SDS011;19522;45.656;11.302;2023-07-29T02:50:54;5.10;;;3.50;;
33160;SDS011;19522;45.656;11.302;2023-07-29T02:53:19;5.53;;;3.53;;
33160;SDS011;19522;45.656;11.302;2023-07-29T02:55:46;4.90;;;3.35;;
33160;SDS011;19522;45.656;11.302;2023-07-29T02:58:11;5.50;;;3.28;;
33160;SDS011;19522;45.656;11.302;2023-07-29T03:00:37;8.45;;;3.60;;
33160;SDS011;19522;45.656;11.302;2023-07-29T03:03:03;4.25;;;2.83;;
33160;SDS011;19522;45.656;11.302;2023-07-29T03:05:29;4.25;;;3.10;;
33160;SDS011;19522;45.656;11.302;2023-07-29T03:07:54;10.13;;;3.53;;
33160;SDS011;19522;45.656;11.302;2023-07-29T03:10:20;6.05;;;3.72;;
33160;SDS011;19522;45.656;11.302;2023-07-29T03:12:45;6.85;;;3.67;;
33160;SDS011;19522;45.656;11.302;2023-07-29T03:15:11;6.50;;;3.90;;
33160;SDS011;19522;45.656;11.302;2023-07-29T03:17:37;6.07;;;3.38;;
33160;SDS011;19522;45.656;11.302;2023-07-29T03:20:03;6.63;;;4.03;;
33160;SDS011;19522;45.656;11.302;2023-07-29T03:22:29;3.90;;;3.28;;
33160;SDS011;19522;45.656;11.302;2023-07-29T03:24:54;5.00;;;3.75;;
33160;SDS011;19522;45.656;11.302;2023-07-29T03:27:20;5.68;;;3.20;;
33160;SDS011;19522;45.656;11.302;2023-07-29T03:29:45;4.45;;;2.97;;
33160;SDS011;19522;45.656;11.302;2023-07-29T03:32:11;6.22;;;3.42;;
33160;SDS011;19522;45.656;11.302;2023-07-29T03:34:37;4.63;;;3.50;;
33160;SDS011;19522;45.656;11.302;2023-07-29T03:37:03;5.50;;;3.47;;
33160;SDS011;19522;45.656;11.302;2023-07-29T03:39:29;6.03;;;3.13;;
33160;SDS011;19522;45.656;11.302;2023-07-29T03:41:54;5.65;;;3.58;;
33160;SDS011;19522;45.656;11.302;2023-07-29T03:44:20;6.78;;;3.20;;
33160;SDS011;19522;45.656;11.302;2023-07-29T03:46:45;6.13;;;3.42;;
33160;SDS011;19522;45.656;11.302;2023-07-29T03:49:11;6.63;;;3.72;;
33160;SDS011;19522;45.656;11.302;2023-07-29T03:51:36;4.53;;;3.30;;
33160;SDS011;19522;45.656;11.302;2023-07-29T03:54:02;7.28;;;3.28;;
33160;SDS011;19522;45.656;11.302;2023-07-29T03:56:27;8.05;;;3.75;;
33160;SDS011;19522;45.656;11.302;2023-07-29T03:58:53;6.25;;;3.63;;
33160;SDS011;19522;45.656;11.302;2023-07-29T04:01:26;4.82;;;3.47;;
33160;SDS011;19522;45.656;11.302;2023-07-29T04:03:52;7.50;;;3.70;;
33160;SDS011;19522;45.656;11.302;2023-07-29T04:06:17;5.10;;;3.17;;
33160;SDS011;19522;45.656;11.302;2023-07-29T04:08:43;5.93;;;3.25;;
33160;SDS011;19522;45.656;11.302;2023-07-29T04:11:09;7.10;;;3.78;;
33160;SDS011;19522;45.656;11.302;2023-07-29T04:13:34;5.03;;;3.45;;
33160;SDS011;19522;45.656;11.302;2023-07-29T04:16:02;5.85;;;4.10;;
33160;SDS011;19522;45.656;11.302;2023-07-29T04:18:29;5.35;;;3.10;;
33160;SDS011;19522;45.656;11.302;2023-07-29T04:20:54;5.57;;;3.45;;
33160;SDS011;19522;45.656;11.302;2023-07-29T04:23:20;5.93;;;3.30;;
33160;SDS011;19522;45.656;11.302;2023-07-29T04:25:45;4.10;;;2.92;;
33160;SDS011;19522;45.656;11.302;2023-07-29T04:28:11;5.35;;;3.60;;
33160;SDS011;19522;45.656;11.302;2023-07-29T04:30:36;6.40;;;3.53;;
33160;SDS011;19522;45.656;11.302;2023-07-29T04:33:02;5.80;;;3.15;;
33160;SDS011;19522;45.656;11.302;2023-07-29T04:35:28;5.63;;;3.63;;
33160;SDS011;19522;45.656;11.302;2023-07-29T04:37:54;5.25;;;4.13;;
33160;SDS011;19522;45.656;11.302;2023-07-29T04:40:19;5.53;;;3.40;;
33160;SDS011;19522;45.656;11.302;2023-07-29T04:42:45;4.85;;;3.63;;
33160;SDS011;19522;45.656;11.302;2023-07-29T04:45:10;8.75;;;3.42;;
33160;SDS011;19522;45.656;11.302;2023-07-29T04:47:36;5.35;;;3.60;;
33160;SDS011;19522;45.656;11.302;2023-07-29T04:50:02;6.47;;;3.75;;
33160;SDS011;19522;45.656;11.302;2023-07-29T04:52:27;4.95;;;3.35;;
33160;SDS011;19522;45.656;11.302;2023-07-29T04:54:53;7.07;;;3.90;;
33160;SDS011;19522;45.656;11.302;2023-07-29T04:57:18;6.32;;;3.45;;
33160;SDS011;19522;45.656;11.302;2023-07-29T04:59:44;5.93;;;3.60;;
33160;SDS011;19522;45.656;11.302;2023-07-29T05:02:09;5.80;;;3.25;;
33160;SDS011;19522;45.656;11.302;2023-07-29T05:04:35;6.97;;;4.10;;
33160;SDS011;19522;45.656;11.302;2023-07-29T05:07:01;6.85;;;4.03;;
33160;SDS011;19522;45.656;11.302;2023-07-29T05:09:27;7.65;;;3.70;;
33160;SDS011;19522;45.656;11.302;2023-07-29T05:11:53;5.63;;;3.10;;
33160;SDS011;19522;45.656;11.302;2023-07-29T05:14:18;6.88;;;3.58;;
33160;SDS011;19522;45.656;11.302;2023-07-29T05:16:44;6.63;;;3.42;;
33160;SDS011;19522;45.656;11.302;2023-07-29T05:19:10;6.53;;;3.67;;
33160;SDS011;19522;45.656;11.302;2023-07-29T05:21:37;5.10;;;3.38;;
33160;SDS011;19522;45.656;11.302;2023-07-29T05:24:03;5.65;;;3.90;;
33160;SDS011;19522;45.656;11.302;2023-07-29T05:26:29;6.20;;;3.80;;
33160;SDS011;19522;45.656;11.302;2023-07-29T05:28:54;6.82;;;3.45;;
33160;SDS011;19522;45.656;11.302;2023-07-29T05:31:20;4.75;;;3.50;;
33160;SDS011;19522;45.656;11.302;2023-07-29T05:33:45;6.10;;;3.53;;
33160;SDS011;19522;45.656;11.302;2023-07-29T05:36:11;7.80;;;3.53;;
33160;SDS011;19522;45.656;11.302;2023-07-29T05:38:36;7.57;;;4.63;;
33160;SDS011;19522;45.656;11.302;2023-07-29T05:41:02;5.38;;;3.45;;
33160;SDS011;19522;45.656;11.302;2023-07-29T05:43:27;6.47;;;3.60;;
33160;SDS011;19522;45.656;11.302;2023-07-29T05:45:56;6.35;;;3.30;;
33160;SDS011;19522;45.656;11.302;2023-07-29T05:48:22;4.20;;;3.28;;
33160;SDS011;19522;45.656;11.302;2023-07-29T05:50:47;4.68;;;3.33;;
33160;SDS011;19522;45.656;11.302;2023-07-29T05:53:14;4.80;;;3.30;;
33160;SDS011;19522;45.656;11.302;2023-07-29T05:55:39;5.38;;;3.30;;
33160;SDS011;19522;45.656;11.302;2023-07-29T05:58:05;5.55;;;4.13;;
33160;SDS011;19522;45.656;11.302;2023-07-29T06:00:30;4.30;;;3.15;;
33160;SDS011;19522;45.656;11.302;2023-07-29T06:02:56;5.10;;;3.20;;
33160;SDS011;19522;45.656;11.302;2023-07-29T06:05:22;7.40;;;3.60;;
33160;SDS011;19522;45.656;11.302;2023-07-29T06:07:47;6.90;;;3.70;;
33160;SDS011;19522;45.656;11.302;2023-07-29T06:10:13;6.28;;;3.50;;
33160;SDS011;19522;45.656;11.302;2023-07-29T06:12:45;5.80;;;3.85;;
33160;SDS011;19522;45.656;11.302;2023-07-29T06:15:11;5.63;;;3.63;;
33160;SDS011;19522;45.656;11.302;2023-07-29T06:17:37;6.32;;;3.80;;
33160;SDS011;19522;45.656;11.302;2023-07-29T06:20:06;5.03;;;3.70;;
33160;SDS011;19522;45.656;11.302;2023-07-29T06:22:32;8.48;;;4.07;;
33160;SDS011;19522;45.656;11.302;2023-07-29T06:24:57;5.97;;;3.60;;
33160;SDS011;19522;45.656;11.302;2023-07-29T06:27:23;7.85;;;3.50;;
33160;SDS011;19522;45.656;11.302;2023-07-29T06:29:50;5.90;;;3.67;;
33160;SDS011;19522;45.656;11.302;2023-07-29T06:32:16;5.55;;;3.58;;
33160;SDS011;19522;45.656;11.302;2023-07-29T06:34:41;5.32;;;3.30;;
33160;SDS011;19522;45.656;11.302;2023-07-29T06:37:09;5.18;;;3.45;;
33160;SDS011;19522;45.656;11.302;2023-07-29T06:39:35;5.90;;;3.67;;
33160;SDS011;19522;45.656;11.302;2023-07-29T06:42:00;6.40;;;3.20;;
33160;SDS011;19522;45.656;11.302;2023-07-29T06:44:27;5.85;;;3.70;;
33160;SDS011;19522;45.656;11.302;2023-07-29T06:46:52;6.50;;;3.50;;
33160;SDS011;19522;45.656;11.302;2023-07-29T06:49:18;5.57;;;3.53;;
33160;SDS011;19522;45.656;11.302;2023-07-29T06:51:43;4.93;;;3.42;;
33160;SDS011;19522;45.656;11.302;2023-07-29T06:54:09;4.82;;;3.65;;
33160;SDS011;19522;45.656;11.302;2023-07-29T06:56:34;6.15;;;3.47;;
33160;SDS011;19522;45.656;11.302;2023-07-29T06:59:00;7.95;;;3.50;;
33160;SDS011;19522;45.656;11.302;2023-07-29T07:01:25;5.13;;;3.17;;
33160;SDS011;19522;45.656;11.302;2023-07-29T07:03:51;4.63;;;3.20;;
33160;SDS011;19522;45.656;11.302;2023-07-29T07:06:19;5.20;;;3.03;;
33160;SDS011;19522;45.656;11.302;2023-07-29T07:08:49;6.78;;;3.65;;
33160;SDS011;19522;45.656;11.302;2023-07-29T07:11:15;10.88;;;3.80;;
33160;SDS011;19522;45.656;11.302;2023-07-29T07:13:41;6.32;;;3.58;;
33160;SDS011;19522;45.656;11.302;2023-07-29T07:16:06;5.85;;;3.50;;
33160;SDS011;19522;45.656;11.302;2023-07-29T07:18:32;5.60;;;3.88;;
33160;SDS011;19522;45.656;11.302;2023-07-29T07:20:57;7.05;;;4.28;;
33160;SDS011;19522;45.656;11.302;2023-07-29T07:23:23;9.02;;;4.50;;
33160;SDS011;19522;45.656;11.302;2023-07-29T07:25:48;6.32;;;3.80;;
33160;SDS011;19522;45.656;11.302;2023-07-29T07:28:14;4.53;;;3.00;;
33160;SDS011;19522;45.656;11.302;2023-07-29T07:30:40;8.27;;;3.97;;
33160;SDS011;19522;45.656;11.302;2023-07-29T07:33:08;7.03;;;4.05;;
33160;SDS011;19522;45.656;11.302;2023-07-29T07:35:34;4.65;;;3.00;;
33160;SDS011;19522;45.656;11.302;2023-07-29T07:38:00;6.93;;;2.83;;
33160;SDS011;19522;45.656;11.302;2023-07-29T07:40:28;7.10;;;3.70;;
33160;SDS011;19522;45.656;11.302;2023-07-29T07:42:55;4.88;;;3.35;;
33160;SDS011;19522;45.656;11.302;2023-07-29T07:45:21;5.45;;;3.45;;
33160;SDS011;19522;45.656;11.302;2023-07-29T07:47:46;6.22;;;3.50;;
33160;SDS011;19522;45.656;11.302;2023-07-29T07:50:12;4.30;;;2.97;;
33160;SDS011;19522;45.656;11.302;2023-07-29T07:52:39;6.18;;;3.20;;
33160;SDS011;19522;45.656;11.302;2023-07-29T07:55:04;9.07;;;3.85;;
33160;SDS011;19522;45.656;11.302;2023-07-29T07:57:30;7.90;;;3.40;;
33160;SDS011;19522;45.656;11.302;2023-07-29T07:59:56;4.22;;;3.08;;
33160;SDS011;19522;45.656;11.302;2023-07-29T08:02:21;5.78;;;3.22;;
33160;SDS011;19522;45.656;11.302;2023-07-29T08:04:47;7.85;;;3.72;;
33160;SDS011;19522;45.656;11.302;2023-07-29T08:07:13;5.75;;;3.60;;
33160;SDS011;19522;45.656;11.302;2023-07-29T08:09:39;5.65;;;3.22;;
33160;SDS011;19522;45.656;11.302;2023-07-29T08:12:04;4.90;;;3.40;;
33160;SDS011;19522;45.656;11.302;2023-07-29T08:14:30;11.77;;;4.35;;
33160;SDS011;19522;45.656;11.302;2023-07-29T08:16:56;5.68;;;3.47;;
33160;SDS011;19522;45.656;11.302;2023-07-29T08:19:21;5.57;;;2.75;;
33160;SDS011;19522;45.656;11.302;2023-07-29T08:21:47;5.00;;;3.10;;
33160;SDS011;19522;45.656;11.302;2023-07-29T08:24:13;5.05;;;3.65;;
33160;SDS011;19522;45.656;11.302;2023-07-29T08:26:38;4.97;;;2.92;;
33160;SDS011;19522;45.656;11.302;2023-07-29T08:29:04;6.25;;;3.60;;
33160;SDS011;19522;45.656;11.302;2023-07-29T08:31:32;4.93;;;2.83;;
33160;SDS011;19522;45.656;11.302;2023-07-29T08:33:59;6.70;;;3.70;;
33160;SDS011;19522;45.656;11.302;2023-07-29T08:36:25;7.75;;;3.75;;
33160;SDS011;19522;45.656;11.302;2023-07-29T08:38:51;9.05;;;3.83;;
33160;SDS011;19522;45.656;11.302;2023-07-29T08:41:19;5.18;;;3.45;;
33160;SDS011;19522;45.656;11.302;2023-07-29T08:44:00;6.20;;;3.38;;
33160;SDS011;19522;45.656;11.302;2023-07-29T08:46:31;5.35;;;3.03;;
33160;SDS011;19522;45.656;11.302;2023-07-29T08:48:58;7.95;;;3.20;;
33160;SDS011;19522;45.656;11.302;2023-07-29T08:51:24;5.82;;;3.38;;
33160;SDS011;19522;45.656;11.302;2023-07-29T08:53:53;6.45;;;3.45;;
33160;SDS011;19522;45.656;11.302;2023-07-29T08:56:19;5.63;;;3.60;;
33160;SDS011;19522;45.656;11.302;2023-07-29T08:58:45;6.80;;;3.38;;
33160;SDS011;19522;45.656;11.302;2023-07-29T09:01:11;4.85;;;2.85;;
33160;SDS011;19522;45.656;11.302;2023-07-29T09:03:37;6.47;;;3.03;;
33160;SDS011;19522;45.656;11.302;2023-07-29T09:06:06;9.95;;;3.65;;
33160;SDS011;19522;45.656;11.302;2023-07-29T09:08:33;5.57;;;3.10;;
33160;SDS011;19522;45.656;11.302;2023-07-29T09:11:00;5.82;;;2.80;;
33160;SDS011;19522;45.656;11.302;2023-07-29T09:13:26;8.57;;;3.20;;
33160;SDS011;19522;45.656;11.302;2023-07-29T09:15:55;7.70;;;3.38;;
33160;SDS011;19522;45.656;11.302;2023-07-29T09:18:22;5.75;;;2.95;;
33160;SDS011;19522;45.656;11.302;2023-07-29T09:20:49;5.18;;;3.17;;
33160;SDS011;19522;45.656;11.302;2023-07-29T09:23:15;7.05;;;3.05;;
33160;SDS011;19522;45.656;11.302;2023-07-29T09:25:41;8.40;;;3.42;;
33160;SDS011;19522;45.656;11.302;2023-07-29T09:28:11;5.93;;;3.25;;
33160;SDS011;19522;45.656;11.302;2023-07-29T09:30:45;5.25;;;3.13;;
33160;SDS011;19522;45.656;11.302;2023-07-29T09:33:12;7.05;;;3.50;;
33160;SDS011;19522;45.656;11.302;2023-07-29T09:35:38;7.20;;;3.65;;
33160;SDS011;19522;45.656;11.302;2023-07-29T09:38:04;5.82;;;3.90;;
33160;SDS011;19522;45.656;11.302;2023-07-29T09:40:37;5.53;;;3.40;;
33160;SDS011;19522;45.656;11.302;2023-07-29T09:43:04;9.15;;;3.50;;
33160;SDS011;19522;45.656;11.302;2023-07-29T09:45:33;5.93;;;3.28;;
33160;SDS011;19522;45.656;11.302;2023-07-29T09:48:00;5.50;;;3.35;;
33160;SDS011;19522;45.656;11.302;2023-07-29T09:50:26;5.70;;;3.85;;
33160;SDS011;19522;45.656;11.302;2023-07-29T09:52:53;5.63;;;3.90;;
33160;SDS011;19522;45.656;11.302;2023-07-29T09:55:25;6.90;;;2.75;;
33160;SDS011;19522;45.656;11.302;2023-07-29T09:57:58;6.63;;;2.85;;
33160;SDS011;19522;45.656;11.302;2023-07-29T10:00:29;6.82;;;3.17;;
33160;SDS011;19522;45.656;11.302;2023-07-29T10:02:55;5.15;;;3.65;;
33160;SDS011;19522;45.656;11.302;2023-07-29T10:05:22;6.90;;;3.47;;
33160;SDS011;19522;45.656;11.302;2023-07-29T10:07:51;7.72;;;3.10;;
33160;SDS011;19522;45.656;11.302;2023-07-29T10:10:17;6.45;;;3.00;;
33160;SDS011;19522;45.656;11.302;2023-07-29T10:12:43;5.20;;;3.10;;
33160;SDS011;19522;45.656;11.302;2023-07-29T10:15:09;6.47;;;3.88;;
33160;SDS011;19522;45.656;11.302;2023-07-29T10:17:36;4.50;;;3.03;;
33160;SDS011;19522;45.656;11.302;2023-07-29T10:20:06;5.25;;;2.85;;
33160;SDS011;19522;45.656;11.302;2023-07-29T10:22:43;7.35;;;3.33;;
33160;SDS011;19522;45.656;11.302;2023-07-29T10:25:18;6.47;;;3.65;;
33160;SDS011;19522;45.656;11.302;2023-07-29T10:30:18;6.80;;;3.05;;
33160;SDS011;19522;45.656;11.302;2023-07-29T10:32:45;6.30;;;3.20;;
33160;SDS011;19522;45.656;11.302;2023-07-29T10:35:14;7.10;;;3.42;;
33160;SDS011;19522;45.656;11.302;2023-07-29T10:37:40;7.38;;;2.70;;
33160;SDS011;19522;45.656;11.302;2023-07-29T10:40:08;6.80;;;3.58;;
33160;SDS011;19522;45.656;11.302;2023-07-29T10:42:35;6.57;;;3.58;;
33160;SDS011;19522;45.656;11.302;2023-07-29T10:45:16;9.63;;;4.13;;
33160;SDS011;19522;45.656;11.302;2023-07-29T10:47:43;8.90;;;3.70;;
33160;SDS011;19522;45.656;11.302;2023-07-29T10:50:16;6.95;;;4.20;;
33160;SDS011;19522;45.656;11.302;2023-07-29T10:52:44;6.15;;;3.40;;
33160;SDS011;19522;45.656;11.302;2023-07-29T10:58:04;5.60;;;3.17;;
33160;SDS011;19522;45.656;11.302;2023-07-29T11:00:34;8.45;;;3.42;;
33160;SDS011;19522;45.656;11.302;2023-07-29T11:03:00;7.15;;;3.60;;
33160;SDS011;19522;45.656;11.302;2023-07-29T11:05:47;7.28;;;3.80;;
33160;SDS011;19522;45.656;11.302;2023-07-29T11:08:26;4.00;;;3.40;;
33160;SDS011;19522;45.656;11.302;2023-07-29T11:11:08;7.20;;;3.95;;
33160;SDS011;19522;45.656;11.302;2023-07-29T11:13:37;8.35;;;3.42;;
33160;SDS011;19522;45.656;11.302;2023-07-29T11:16:03;6.15;;;3.65;;
33160;SDS011;19522;45.656;11.302;2023-07-29T11:18:33;7.28;;;3.92;;
33160;SDS011;19522;45.656;11.302;2023-07-29T11:21:00;7.28;;;4.32;;
33160;SDS011;19522;45.656;11.302;2023-07-29T11:23:29;7.25;;;3.90;;
33160;SDS011;19522;45.656;11.302;2023-07-29T11:26:00;6.85;;;4.10;;
33160;SDS011;19522;45.656;11.302;2023-07-29T11:28:26;6.78;;;3.78;;
33160;SDS011;19522;45.656;11.302;2023-07-29T11:30:56;9.73;;;4.35;;
33160;SDS011;19522;45.656;11.302;2023-07-29T11:33:23;7.47;;;3.83;;
33160;SDS011;19522;45.656;11.302;2023-07-29T11:35:50;7.45;;;4.07;;
33160;SDS011;19522;45.656;11.302;2023-07-29T11:38:17;5.50;;;4.15;;
33160;SDS011;19522;45.656;11.302;2023-07-29T11:40:43;7.47;;;3.88;;
33160;SDS011;19522;45.656;11.302;2023-07-29T11:43:23;8.93;;;4.40;;
33160;SDS011;19522;45.656;11.302;2023-07-29T11:45:49;5.13;;;4.10;;
33160;SDS011;19522;45.656;11.302;2023-07-29T11:48:30;9.60;;;4.38;;
33160;SDS011;19522;45.656;11.302;2023-07-29T11:50:58;9.32;;;4.82;;
33160;SDS011;19522;45.656;11.302;2023-07-29T11:53:30;6.47;;;4.20;;
33160;SDS011;19522;45.656;11.302;2023-07-29T11:55:57;7.97;;;4.65;;
33160;SDS011;19522;45.656;11.302;2023-07-29T11:58:24;10.65;;;4.97;;
33160;SDS011;19522;45.656;11.302;2023-07-29T12:00:50;6.30;;;4.45;;
33160;SDS011;19522;45.656;11.302;2023-07-29T12:03:19;7.03;;;4.15;;
33160;SDS011;19522;45.656;11.302;2023-07-29T12:05:45;6.70;;;4.82;;
33160;SDS011;19522;45.656;11.302;2023-07-29T12:08:12;13.35;;;4.80;;
33160;SDS011;19522;45.656;11.302;2023-07-29T12:10:40;7.10;;;4.45;;
33160;SDS011;19522;45.656;11.302;2023-07-29T12:13:08;6.63;;;4.40;;
33160;SDS011;19522;45.656;11.302;2023-07-29T12:15:37;6.35;;;3.97;;
33160;SDS011;19522;45.656;11.302;2023-07-29T12:18:06;9.60;;;4.60;;
33160;SDS011;19522;45.656;11.302;2023-07-29T12:20:32;7.78;;;4.28;;
33160;SDS011;19522;45.656;11.302;2023-07-29T12:22:59;8.02;;;4.95;;
33160;SDS011;19522;45.656;11.302;2023-07-29T12:25:31;10.30;;;5.22;;
33160;SDS011;19522;45.656;11.302;2023-07-29T12:28:01;12.35;;;4.70;;
33160;SDS011;19522;45.656;11.302;2023-07-29T12:30:29;11.02;;;5.63;;
33160;SDS011;19522;45.656;11.302;2023-07-29T12:32:55;31.65;;;10.82;;
33160;SDS011;19522;45.656;11.302;2023-07-29T12:35:21;9.05;;;4.95;;
33160;SDS011;19522;45.656;11.302;2023-07-29T12:37:47;7.82;;;4.50;;
33160;SDS011;19522;45.656;11.302;2023-07-29T12:40:23;8.80;;;4.95;;
33160;SDS011;19522;45.656;11.302;2023-07-29T12:42:55;7.53;;;5.40;;
33160;SDS011;19522;45.656;11.302;2023-07-29T12:45:23;10.15;;;4.82;;
33160;SDS011;19522;45.656;11.302;2023-07-29T12:47:55;9.30;;;4.63;;
33160;SDS011;19522;45.656;11.302;2023-07-29T12:50:21;12.07;;;4.93;;
33160;SDS011;19522;45.656;11.302;2023-07-29T12:52:46;10.27;;;4.55;;
33160;SDS011;19522;45.656;11.302;2023-07-29T12:55:12;7.85;;;5.03;;
33160;SDS011;19522;45.656;11.302;2023-07-29T12:57:39;8.18;;;5.50;;
33160;SDS011;19522;45.656;11.302;2023-07-29T13:00:06;7.25;;;5.22;;
33160;SDS011;19522;45.656;11.302;2023-07-29T13:02:34;7.20;;;4.68;;
33160;SDS011;19522;45.656;11.302;2023-07-29T13:04:59;6.90;;;4.70;;
33160;SDS011;19522;45.656;11.302;2023-07-29T13:07:25;10.10;;;5.28;;
33160;SDS011;19522;45.656;11.302;2023-07-29T13:09:50;11.90;;;4.63;;
33160;SDS011;19522;45.656;11.302;2023-07-29T13:12:15;9.30;;;4.82;;
33160;SDS011;19522;45.656;11.302;2023-07-29T13:14:41;8.15;;;4.68;;
33160;SDS011;19522;45.656;11.302;2023-07-29T13:17:06;8.18;;;4.43;;
33160;SDS011;19522;45.656;11.302;2023-07-29T13:19:32;10.57;;;5.80;;
33160;SDS011;19522;45.656;11.302;2023-07-29T13:21:58;6.50;;;4.40;;
33160;SDS011;19522;45.656;11.302;2023-07-29T13:24:23;10.18;;;5.30;;
33160;SDS011;19522;45.656;11.302;2023-07-29T13:26:49;8.88;;;6.70;;
33160;SDS011;19522;45.656;11.302;2023-07-29T13:29:14;6.93;;;4.60;;
33160;SDS011;19522;45.656;11.302;2023-07-29T13:31:40;10.25;;;5.10;;
33160;SDS011;19522;45.656;11.302;2023-07-29T13:34:06;7.43;;;4.60;;
33160;SDS011;19522;45.656;11.302;2023-07-29T13:36:32;6.00;;;4.55;;
33160;SDS011;19522;45.656;11.302;2023-07-29T13:38:57;8.43;;;4.43;;
33160;SDS011;19522;45.656;11.302;2023-07-29T13:41:23;10.73;;;5.28;;
33160;SDS011;19522;45.656;11.302;2023-07-29T13:43:48;6.13;;;4.55;;
33160;SDS011;19522;45.656;11.302;2023-07-29T13:46:14;6.63;;;4.40;;
33160;SDS011;19522;45.656;11.302;2023-07-29T13:48:39;7.47;;;4.70;;
33160;SDS011;19522;45.656;11.302;2023-07-29T13:51:05;7.85;;;4.93;;
33160;SDS011;19522;45.656;11.302;2023-07-29T13:53:30;8.27;;;5.07;;
33160;SDS011;19522;45.656;11.302;2023-07-29T13:55:56;11.15;;;5.22;;
33160;SDS011;19522;45.656;11.302;2023-07-29T13:58:22;8.77;;;5.38;;
33160;SDS011;19522;45.656;11.302;2023-07-29T14:00:47;8.23;;;5.25;;
33160;SDS011;19522;45.656;11.302;2023-07-29T14:03:13;8.48;;;5.35;;
33160;SDS011;19522;45.656;11.302;2023-07-29T14:05:38;6.85;;;4.68;;
33160;SDS011;19522;45.656;11.302;2023-07-29T14:08:04;9.27;;;5.10;;
33160;SDS011;19522;45.656;11.302;2023-07-29T14:10:29;7.63;;;4.95;;
33160;SDS011;19522;45.656;11.302;2023-07-29T14:12:55;7.75;;;5.20;;
33160;SDS011;19522;45.656;11.302;2023-07-29T14:15:21;5.95;;;4.28;;
33160;SDS011;19522;45.656;11.302;2023-07-29T14:17:46;7.88;;;5.15;;
33160;SDS011;19522;45.656;11.302;2023-07-29T14:20:13;12.25;;;4.97;;
33160;SDS011;19522;45.656;11.302;2023-07-29T14:22:38;9.73;;;4.80;;
33160;SDS011;19522;45.656;11.302;2023-07-29T14:25:04;7.68;;;4.55;;
33160;SDS011;19522;45.656;11.302;2023-07-29T14:27:30;7.60;;;5.00;;
33160;SDS011;19522;45.656;11.302;2023-07-29T14:29:56;6.82;;;5.13;;
33160;SDS011;19522;45.656;11.302;2023-07-29T14:32:21;7.80;;;5.00;;
33160;SDS011;19522;45.656;11.302;2023-07-29T14:34:47;6.53;;;4.63;;
33160;SDS011;19522;45.656;11.302;2023-07-29T14:37:14;7.45;;;5.10;;
33160;SDS011;19522;45.656;11.302;2023-07-29T14:39:39;8.00;;;5.45;;
33160;SDS011;19522;45.656;11.302;2023-07-29T14:42:05;6.63;;;5.05;;
33160;SDS011;19522;45.656;11.302;2023-07-29T14:44:31;7.70;;;5.35;;
33160;SDS011;19522;45.656;11.302;2023-07-29T14:46:57;9.50;;;4.43;;